Time;durP1;ratioP1;P1;durP2;ratioP2;P2;SDS_P1;SDS_P2;PMS_P1;PMS_P2;Temp;Humidity;BMP_temperature;BMP_pressure;BME280_temperature;BME280_humidity;BME280_pressure;Samples;Min_cycle;Max_cycle;Signal;HPM_P1;HPM_P2
2023/12/13 00:02:00;;;;;;;2.40;1.50;;;8.70;99.90;;;;;;477360;249;27852;-75
2023/12/13 00:04:01;;;;;;;4.63;1.70;;;8.60;99.90;;;;;;477360;249;28006;-75
2023/12/13 00:06:02;;;;;;;2.33;1.60;;;8.60;99.90;;;;;;477339;249;27862;-75
2023/12/13 00:08:03;;;;;;;1.70;1.60;;;8.70;99.90;;;;;;477281;249;28090;-76
2023/12/13 00:10:05;;;;;;;1.97;1.40;;;8.70;99.90;;;;;;477348;249;27651;-75
2023/12/13 00:12:06;;;;;;;1.43;1.30;;;8.70;99.90;;;;;;477300;249;28086;-75
2023/12/13 00:14:07;;;;;;;3.33;1.63;;;8.60;99.90;;;;;;477351;249;28014;-75
2023/12/13 00:16:08;;;;;;;3.00;1.50;;;8.60;99.90;;;;;;477340;249;27985;-76
2023/12/13 00:18:10;;;;;;;3.97;1.40;;;8.60;99.90;;;;;;477377;249;28095;-75
2023/12/13 00:20:11;;;;;;;2.00;1.47;;;8.60;99.90;;;;;;477498;249;28133;-75
2023/12/13 00:22:12;;;;;;;4.10;1.53;;;8.60;99.90;;;;;;477497;249;27970;-75
2023/12/13 00:24:14;;;;;;;2.20;1.20;;;8.60;99.90;;;;;;477518;245;28013;-76
2023/12/13 00:26:15;;;;;;;2.67;1.47;;;8.60;99.90;;;;;;477475;249;27979;-75
2023/12/13 00:28:16;;;;;;;3.00;1.40;;;8.50;99.90;;;;;;477483;249;27669;-75
2023/12/13 00:30:17;;;;;;;1.77;1.20;;;8.50;99.90;;;;;;477490;249;27667;-75
2023/12/13 00:32:18;;;;;;;3.57;1.53;;;8.50;99.90;;;;;;477408;249;27992;-75
2023/12/13 00:34:20;;;;;;;3.50;1.53;;;8.50;99.90;;;;;;477372;249;27956;-75
2023/12/13 00:36:21;;;;;;;1.80;1.30;;;8.50;99.90;;;;;;477387;249;27983;-75
2023/12/13 00:38:22;;;;;;;1.57;1.30;;;8.50;99.90;;;;;;477392;249;28008;-75
2023/12/13 00:40:24;;;;;;;1.77;1.10;;;8.50;99.90;;;;;;477344;249;28021;-76
2023/12/13 00:42:25;;;;;;;3.20;1.43;;;8.50;99.90;;;;;;477390;249;27488;-74
2023/12/13 00:44:26;;;;;;;2.13;1.20;;;8.40;99.90;;;;;;477381;249;28496;-75
2023/12/13 00:46:27;;;;;;;1.40;1.10;;;8.40;99.90;;;;;;477470;249;28132;-75
2023/12/13 00:48:28;;;;;;;2.63;1.60;;;8.50;99.90;;;;;;477481;249;28414;-74
2023/12/13 00:50:30;;;;;;;4.20;1.57;;;8.50;99.90;;;;;;477398;245;28225;-74
2023/12/13 00:52:32;;;;;;;5.43;1.60;;;8.50;99.90;;;;;;477377;249;28501;-75
2023/12/13 00:54:32;;;;;;;3.77;1.40;;;8.40;99.90;;;;;;477445;245;28523;-75
2023/12/13 00:56:35;;;;;;;1.63;1.20;;;8.40;99.90;;;;;;477441;249;28088;-75
2023/12/13 00:58:35;;;;;;;3.37;1.70;;;8.50;99.90;;;;;;477287;249;27722;-75
2023/12/13 01:00:36;;;;;;;1.47;1.37;;;8.50;99.90;;;;;;477456;249;28097;-76
2023/12/13 01:02:37;;;;;;;1.30;1.20;;;8.50;99.90;;;;;;477452;249;27743;-74
2023/12/13 01:04:38;;;;;;;3.40;1.40;;;8.50;99.90;;;;;;477494;249;27633;-74
2023/12/13 01:06:40;;;;;;;2.63;1.53;;;8.40;99.90;;;;;;477375;249;28073;-75
2023/12/13 01:08:41;;;;;;;2.00;1.43;;;8.40;99.90;;;;;;477360;249;28042;-75
2023/12/13 01:10:42;;;;;;;3.13;1.43;;;8.40;99.90;;;;;;477405;249;27933;-74
2023/12/13 01:12:43;;;;;;;1.10;1.10;;;8.40;99.90;;;;;;477449;245;28106;-76
2023/12/13 01:14:45;;;;;;;2.20;1.53;;;8.40;99.90;;;;;;477390;249;27623;-76
2023/12/13 01:16:46;;;;;;;4.73;1.50;;;8.40;99.90;;;;;;477377;249;28006;-75
2023/12/13 01:18:47;;;;;;;1.93;1.57;;;8.50;99.90;;;;;;477365;249;27976;-75
2023/12/13 01:20:48;;;;;;;3.97;1.73;;;8.40;99.90;;;;;;477358;249;27992;-75
2023/12/13 01:22:50;;;;;;;3.30;1.80;;;8.50;99.90;;;;;;477450;249;27993;-76
2023/12/13 01:24:51;;;;;;;2.80;1.50;;;8.40;99.90;;;;;;477495;249;28368;-75
2023/12/13 01:26:52;;;;;;;4.20;1.60;;;8.30;99.90;;;;;;477436;249;28209;-76
2023/12/13 01:28:53;;;;;;;2.20;1.70;;;8.40;99.90;;;;;;477408;249;28442;-75
2023/12/13 01:30:55;;;;;;;3.47;1.80;;;8.40;99.90;;;;;;477350;249;28328;-76
2023/12/13 01:32:56;;;;;;;1.80;1.40;;;8.40;99.90;;;;;;477380;249;28639;-75
2023/12/13 01:34:57;;;;;;;5.00;1.60;;;8.40;99.90;;;;;;477380;249;28276;-76
2023/12/13 01:36:58;;;;;;;2.40;1.60;;;8.40;99.90;;;;;;477360;249;27886;-75
2023/12/13 01:39:00;;;;;;;2.03;1.53;;;8.40;99.90;;;;;;477351;249;27623;-76
2023/12/13 01:41:01;;;;;;;2.03;1.60;;;8.40;99.90;;;;;;477354;249;27932;-75
2023/12/13 01:43:02;;;;;;;2.60;1.47;;;8.40;99.90;;;;;;477395;249;27894;-75
2023/12/13 01:45:03;;;;;;;3.40;1.60;;;8.40;99.90;;;;;;477487;249;28047;-75
2023/12/13 01:47:05;;;;;;;2.40;1.63;;;8.40;99.90;;;;;;477443;249;27765;-74
2023/12/13 01:49:06;;;;;;;4.40;1.63;;;8.30;99.90;;;;;;477432;249;28085;-75
2023/12/13 01:51:07;;;;;;;2.83;1.93;;;8.40;99.90;;;;;;477342;249;27850;-75
2023/12/13 01:53:08;;;;;;;3.00;1.50;;;8.30;99.90;;;;;;477386;249;28099;-76
2023/12/13 01:55:10;;;;;;;1.87;1.63;;;8.40;99.90;;;;;;477326;249;27967;-75
2023/12/13 01:57:13;;;;;;;1.87;1.67;;;8.40;99.90;;;;;;477348;249;27937;-75
2023/12/13 01:59:15;;;;;;;3.40;1.40;;;8.40;99.90;;;;;;477258;245;28021;-75
2023/12/13 02:01:13;;;;;;;2.70;1.70;;;8.40;99.90;;;;;;477162;249;27917;-75
2023/12/13 02:03:15;;;;;;;3.93;1.50;;;8.40;99.90;;;;;;477367;249;27990;-75
2023/12/13 02:05:16;;;;;;;3.10;1.97;;;8.40;99.90;;;;;;477358;249;28544;-75
2023/12/13 02:07:17;;;;;;;5.57;1.97;;;8.40;99.90;;;;;;477340;249;28474;-75
2023/12/13 02:09:18;;;;;;;4.87;1.80;;;8.40;99.90;;;;;;477442;245;28706;-75
2023/12/13 02:11:20;;;;;;;1.93;1.57;;;8.30;99.90;;;;;;477374;249;28668;-77
2023/12/13 02:13:21;;;;;;;2.43;1.73;;;8.30;99.90;;;;;;477355;249;28489;-75
2023/12/13 02:15:22;;;;;;;3.87;1.77;;;8.30;99.90;;;;;;477449;249;28620;-75
2023/12/13 02:17:23;;;;;;;3.13;1.50;;;8.40;99.90;;;;;;477436;249;27981;-75
2023/12/13 02:19:25;;;;;;;3.57;1.73;;;8.30;99.90;;;;;;477468;249;27741;-75
2023/12/13 02:21:26;;;;;;;2.53;2.33;;;8.40;99.90;;;;;;477467;249;27948;-76
2023/12/13 02:23:27;;;;;;;2.03;1.50;;;8.30;99.90;;;;;;477406;249;27988;-76
2023/12/13 02:25:28;;;;;;;2.93;1.40;;;8.30;99.90;;;;;;477418;249;29476;-76
2023/12/13 02:27:30;;;;;;;1.57;1.40;;;8.40;99.90;;;;;;477423;249;28092;-77
2023/12/13 02:29:31;;;;;;;1.70;1.30;;;8.30;99.90;;;;;;477451;249;28505;-75
2023/12/13 02:31:32;;;;;;;2.77;1.30;;;8.30;99.90;;;;;;477329;249;28356;-77
2023/12/13 02:33:33;;;;;;;3.37;1.60;;;8.30;99.90;;;;;;477148;249;28374;-74
2023/12/13 02:35:35;;;;;;;3.07;1.60;;;8.30;99.90;;;;;;477249;245;28167;-77
2023/12/13 02:37:36;;;;;;;2.47;1.37;;;8.30;99.90;;;;;;477094;249;27990;-75
2023/12/13 02:39:37;;;;;;;3.23;1.30;;;8.40;99.90;;;;;;476841;245;28086;-74
2023/12/13 02:41:38;;;;;;;2.30;1.60;;;8.30;99.90;;;;;;477042;249;28114;-75
2023/12/13 02:43:40;;;;;;;2.03;1.50;;;8.40;99.90;;;;;;477288;249;27889;-75
2023/12/13 02:45:41;;;;;;;1.70;1.20;;;8.40;99.90;;;;;;477460;249;27749;-76
2023/12/13 02:47:42;;;;;;;2.00;1.40;;;8.40;99.90;;;;;;477404;249;27995;-76
2023/12/13 02:49:43;;;;;;;1.53;1.30;;;8.40;99.90;;;;;;477444;249;28110;-75
2023/12/13 02:51:45;;;;;;;7.10;1.67;;;8.40;99.90;;;;;;477417;249;28020;-77
2023/12/13 02:53:46;;;;;;;3.87;1.57;;;8.40;99.90;;;;;;477393;249;28010;-76
2023/12/13 02:55:47;;;;;;;2.50;1.83;;;8.40;99.90;;;;;;477453;249;28239;-75
2023/12/13 02:57:48;;;;;;;2.20;1.73;;;8.40;99.90;;;;;;477453;249;27855;-75
2023/12/13 02:59:50;;;;;;;1.70;1.60;;;8.40;99.90;;;;;;477477;249;27879;-75
2023/12/13 03:01:51;;;;;;;2.93;1.33;;;8.40;99.90;;;;;;477332;249;27849;-76
2023/12/13 03:03:52;;;;;;;2.77;1.60;;;8.40;99.90;;;;;;477341;249;28515;-75
2023/12/13 03:05:53;;;;;;;6.33;1.47;;;8.40;99.90;;;;;;477367;249;28493;-75
2023/12/13 03:07:55;;;;;;;3.77;1.37;;;8.40;99.90;;;;;;477420;245;28307;-76
2023/12/13 03:09:56;;;;;;;4.10;1.57;;;8.40;99.90;;;;;;477416;249;28477;-74
2023/12/13 03:11:57;;;;;;;1.80;1.57;;;8.40;99.90;;;;;;477408;249;30273;-76
2023/12/13 03:13:58;;;;;;;2.30;1.43;;;8.40;99.90;;;;;;477361;249;28532;-75
2023/12/13 03:16:00;;;;;;;4.10;1.53;;;8.40;99.90;;;;;;477351;249;28025;-75
2023/12/13 03:18:01;;;;;;;3.50;1.57;;;8.40;99.90;;;;;;477348;249;27935;-76
2023/12/13 03:20:03;;;;;;;3.50;1.90;;;8.40;99.90;;;;;;477340;249;27761;-74
2023/12/13 03:22:03;;;;;;;2.87;1.43;;;8.40;99.90;;;;;;477426;249;28035;-75
2023/12/13 03:24:05;;;;;;;5.33;1.27;;;8.30;99.90;;;;;;477494;249;27819;-76
2023/12/13 03:26:06;;;;;;;2.77;1.30;;;8.30;99.90;;;;;;477446;249;27887;-76
2023/12/13 03:28:08;;;;;;;2.80;1.60;;;8.40;99.90;;;;;;477286;249;27979;-75
2023/12/13 03:30:09;;;;;;;4.03;1.60;;;8.40;99.90;;;;;;477405;249;28063;-75
2023/12/13 03:32:10;;;;;;;1.43;1.30;;;8.40;99.90;;;;;;477459;249;28429;-75
2023/12/13 03:34:11;;;;;;;2.10;1.50;;;8.40;99.90;;;;;;477490;249;28086;-75
2023/12/13 03:36:12;;;;;;;4.73;1.63;;;8.40;99.90;;;;;;477413;249;28086;-75
2023/12/13 03:38:13;;;;;;;6.87;1.90;;;8.40;99.90;;;;;;477432;249;28122;-75
2023/12/13 03:40:15;;;;;;;5.50;2.00;;;8.30;99.90;;;;;;477391;249;28072;-75
2023/12/13 03:42:16;;;;;;;2.80;1.83;;;8.30;99.90;;;;;;477397;249;28062;-76
2023/12/13 03:44:17;;;;;;;2.07;1.60;;;8.40;99.90;;;;;;477458;249;28160;-75
2023/12/13 03:46:18;;;;;;;5.77;2.10;;;8.40;99.90;;;;;;477354;249;28306;-75
2023/12/13 03:48:20;;;;;;;4.20;1.90;;;8.50;99.90;;;;;;472201;243;28419;-76
2023/12/13 03:50:21;;;;;;;4.60;2.10;;;8.40;99.90;;;;;;473580;250;28494;-74
2023/12/13 03:52:22;;;;;;;7.77;2.07;;;8.40;99.90;;;;;;473536;249;28470;-74
2023/12/13 03:54:23;;;;;;;3.53;1.70;;;8.30;99.90;;;;;;473636;249;28524;-75
2023/12/13 03:56:29;;;;;;;6.50;2.37;;;8.30;99.90;;;;;;473622;249;27767;-77
2023/12/13 03:58:26;;;;;;;3.90;2.07;;;8.40;99.90;;;;;;473418;251;28167;-76
2023/12/13 04:00:27;;;;;;;5.20;2.20;;;8.40;99.90;;;;;;473664;249;27866;-74
2023/12/13 04:02:28;;;;;;;3.80;1.93;;;8.30;99.90;;;;;;473662;249;27866;-74
2023/12/13 04:04:30;;;;;;;4.00;2.20;;;8.30;99.90;;;;;;473572;249;28023;-74
2023/12/13 04:06:31;;;;;;;4.00;2.07;;;8.30;99.90;;;;;;473595;249;28084;-75
2023/12/13 04:08:32;;;;;;;6.83;2.03;;;8.30;99.90;;;;;;473615;249;27677;-77
2023/12/13 04:10:33;;;;;;;4.07;1.67;;;8.30;99.90;;;;;;473481;249;28026;-76
2023/12/13 04:12:35;;;;;;;2.50;1.60;;;8.30;99.90;;;;;;473608;249;28008;-76
2023/12/13 04:14:36;;;;;;;2.90;1.70;;;8.30;99.90;;;;;;473648;249;28076;-77
2023/12/13 04:16:37;;;;;;;2.40;1.57;;;8.30;99.90;;;;;;473621;249;28016;-76
2023/12/13 04:18:38;;;;;;;3.97;1.63;;;8.20;99.90;;;;;;473694;249;27858;-75
2023/12/13 04:20:40;;;;;;;3.70;1.53;;;8.20;99.90;;;;;;473547;249;27973;-76
2023/12/13 04:22:41;;;;;;;4.67;2.10;;;8.10;99.90;;;;;;473474;251;28008;-75
2023/12/13 04:24:42;;;;;;;1.50;1.40;;;8.10;99.90;;;;;;473538;249;28434;-76
2023/12/13 04:26:43;;;;;;;1.87;1.70;;;8.20;99.90;;;;;;473582;249;28504;-76
2023/12/13 04:28:44;;;;;;;1.73;1.53;;;8.20;99.90;;;;;;473576;249;28427;-74
2023/12/13 04:30:46;;;;;;;1.93;1.20;;;8.10;99.90;;;;;;473564;249;28421;-76
2023/12/13 04:32:47;;;;;;;1.97;1.43;;;8.10;99.90;;;;;;473595;249;28560;-78
2023/12/13 04:34:48;;;;;;;1.60;1.50;;;8.20;99.90;;;;;;473541;246;28788;-77
2023/12/13 04:36:49;;;;;;;2.30;1.23;;;8.10;99.90;;;;;;473358;249;27855;-75
2023/12/13 04:38:51;;;;;;;3.50;1.43;;;8.10;99.90;;;;;;473573;249;27844;-75
2023/12/13 04:40:52;;;;;;;2.80;1.57;;;8.10;99.90;;;;;;473592;249;27964;-77
2023/12/13 04:42:53;;;;;;;2.87;1.70;;;8.20;99.90;;;;;;473516;249;28057;-75
2023/12/13 04:44:54;;;;;;;2.10;1.40;;;8.20;99.90;;;;;;473645;249;27999;-76
2023/12/13 04:46:56;;;;;;;1.90;1.27;;;8.10;99.90;;;;;;473661;249;27969;-75
2023/12/13 04:48:57;;;;;;;4.37;1.70;;;8.10;99.90;;;;;;473650;249;28120;-75
2023/12/13 04:50:59;;;;;;;2.90;1.47;;;8.10;99.90;;;;;;473649;249;27752;-76
2023/12/13 04:53:01;;;;;;;4.37;2.03;;;8.10;99.90;;;;;;473564;244;27974;-75
2023/12/13 04:55:01;;;;;;;2.20;1.60;;;8.00;99.90;;;;;;473503;251;28396;-74
2023/12/13 04:57:02;;;;;;;1.97;1.40;;;8.10;99.90;;;;;;473529;246;27991;-77
2023/12/13 04:59:03;;;;;;;2.17;1.20;;;8.10;99.90;;;;;;473571;249;28024;-75
2023/12/13 05:01:05;;;;;;;1.57;1.37;;;8.00;99.90;;;;;;473680;249;27850;-76
2023/12/13 05:03:06;;;;;;;4.97;1.60;;;8.10;99.90;;;;;;473688;249;28120;-75
2023/12/13 05:05:07;;;;;;;1.70;1.50;;;8.10;99.90;;;;;;473663;249;28467;-75
2023/12/13 05:07:09;;;;;;;3.27;1.50;;;8.10;99.90;;;;;;473687;249;28461;-76
2023/12/13 05:09:10;;;;;;;1.60;1.20;;;8.10;99.90;;;;;;473653;249;28146;-76
2023/12/13 05:11:11;;;;;;;3.03;1.40;;;8.10;99.90;;;;;;473658;249;30276;-75
2023/12/13 05:13:12;;;;;;;1.50;1.40;;;8.20;99.90;;;;;;473661;249;29422;-74
2023/12/13 05:15:13;;;;;;;1.57;1.47;;;8.20;99.90;;;;;;473595;249;28148;-75
2023/12/13 05:17:15;;;;;;;2.50;1.40;;;8.20;99.90;;;;;;473564;249;27843;-75
2023/12/13 05:19:16;;;;;;;1.37;1.27;;;8.20;99.90;;;;;;473507;249;28589;-75
2023/12/13 05:21:17;;;;;;;1.37;1.23;;;8.20;99.90;;;;;;473561;246;28031;-76
2023/12/13 05:23:18;;;;;;;1.93;1.30;;;8.10;99.90;;;;;;473581;249;28154;-75
2023/12/13 05:25:20;;;;;;;3.27;1.50;;;8.20;99.90;;;;;;473544;249;27993;-74
2023/12/13 05:27:21;;;;;;;2.23;1.53;;;8.20;99.90;;;;;;473586;249;27949;-75
2023/12/13 05:29:22;;;;;;;3.53;1.73;;;8.20;99.90;;;;;;473605;249;27975;-75
2023/12/13 05:31:23;;;;;;;4.63;1.70;;;8.10;99.90;;;;;;473360;251;28428;-75
2023/12/13 05:33:25;;;;;;;3.07;1.60;;;8.10;99.90;;;;;;473567;246;28048;-75
2023/12/13 05:35:26;;;;;;;4.00;1.40;;;8.00;99.90;;;;;;473568;249;28063;-75
2023/12/13 05:37:27;;;;;;;1.70;1.60;;;7.90;99.90;;;;;;473607;249;28195;-75
2023/12/13 05:39:28;;;;;;;2.37;1.60;;;8.00;99.90;;;;;;473568;249;28090;-75
2023/12/13 05:41:30;;;;;;;1.80;1.27;;;8.10;99.90;;;;;;473598;249;28000;-75
2023/12/13 05:43:31;;;;;;;1.60;1.50;;;8.10;99.90;;;;;;473573;249;28526;-75
2023/12/13 05:45:32;;;;;;;2.37;1.70;;;8.00;99.90;;;;;;473590;249;28095;-75
2023/12/13 05:47:33;;;;;;;8.07;1.90;;;8.00;99.90;;;;;;473583;249;28713;-76
2023/12/13 05:49:35;;;;;;;3.63;1.90;;;8.00;99.90;;;;;;473601;249;28312;-75
2023/12/13 05:51:36;;;;;;;3.43;1.57;;;8.00;99.90;;;;;;473676;246;28564;-76
2023/12/13 05:53:37;;;;;;;1.93;1.50;;;8.00;99.90;;;;;;473692;249;28446;-76
2023/12/13 05:55:38;;;;;;;2.73;1.40;;;8.00;99.90;;;;;;473546;249;28007;-75
2023/12/13 05:57:40;;;;;;;1.50;1.40;;;8.10;99.90;;;;;;473650;249;28002;-76
2023/12/13 05:59:42;;;;;;;4.50;1.93;;;8.10;99.90;;;;;;473645;246;27802;-74
2023/12/13 06:01:42;;;;;;;3.13;1.50;;;8.10;99.90;;;;;;473594;249;27895;-75
2023/12/13 06:03:43;;;;;;;1.77;1.30;;;8.20;99.90;;;;;;473534;249;28384;-75
2023/12/13 06:05:45;;;;;;;2.07;1.30;;;8.20;99.90;;;;;;473585;249;28203;-74
2023/12/13 06:07:46;;;;;;;1.97;1.50;;;8.20;99.90;;;;;;473624;249;27544;-76
2023/12/13 06:09:47;;;;;;;2.70;1.37;;;8.20;99.90;;;;;;473669;249;27979;-74
2023/12/13 06:11:48;;;;;;;4.70;1.60;;;8.30;99.90;;;;;;473650;249;28086;-75
2023/12/13 06:13:50;;;;;;;2.60;1.63;;;8.30;99.90;;;;;;473696;249;27967;-75
2023/12/13 06:15:51;;;;;;;6.10;1.50;;;8.20;99.90;;;;;;473692;249;27880;-76
2023/12/13 06:17:52;;;;;;;1.20;1.20;;;8.20;99.90;;;;;;473666;249;28193;-75
2023/12/13 06:19:53;;;;;;;2.43;1.50;;;8.20;99.90;;;;;;473614;249;27606;-76
2023/12/13 06:21:55;;;;;;;1.67;1.57;;;8.30;99.90;;;;;;473710;249;28004;-75
2023/12/13 06:23:56;;;;;;;3.13;2.37;;;8.30;99.90;;;;;;473712;249;29082;-75
2023/12/13 06:25:57;;;;;;;5.43;2.70;;;8.30;99.90;;;;;;473654;249;28397;-75
2023/12/13 06:27:58;;;;;;;6.20;2.57;;;8.30;99.90;;;;;;473685;246;28486;-74
2023/12/13 06:30:00;;;;;;;3.80;2.33;;;8.30;99.90;;;;;;473704;249;28432;-75
2023/12/13 06:32:01;;;;;;;2.40;2.00;;;8.30;99.90;;;;;;473679;249;28484;-75
2023/12/13 06:34:02;;;;;;;3.50;2.10;;;8.30;99.90;;;;;;473540;249;27936;-76
2023/12/13 06:36:03;;;;;;;1.97;1.57;;;8.30;99.90;;;;;;473571;249;27876;-74
2023/12/13 06:38:05;;;;;;;3.93;1.90;;;8.30;99.90;;;;;;473587;249;28001;-75
2023/12/13 06:40:06;;;;;;;2.03;1.43;;;8.30;99.90;;;;;;473562;249;28991;-76
2023/12/13 06:42:10;;;;;;;4.40;1.50;;;8.30;99.90;;;;;;473543;249;28157;-73
2023/12/13 06:44:11;;;;;;;4.30;1.77;;;8.30;99.90;;;;;;473555;249;27890;-75
2023/12/13 06:46:12;;;;;;;1.70;1.50;;;8.30;99.90;;;;;;473670;249;28599;-75
2023/12/13 06:48:14;;;;;;;2.60;1.70;;;8.30;99.90;;;;;;473633;249;27984;-77
2023/12/13 06:50:15;;;;;;;4.10;1.70;;;8.30;99.90;;;;;;473592;249;27998;-75
2023/12/13 06:52:16;;;;;;;1.70;1.30;;;8.30;99.90;;;;;;473570;249;27852;-76
2023/12/13 06:54:18;;;;;;;3.03;1.30;;;8.30;99.90;;;;;;473653;249;27968;-76
2023/12/13 06:56:19;;;;;;;3.23;1.47;;;8.30;99.90;;;;;;473655;249;28028;-75
2023/12/13 06:58:20;;;;;;;2.50;1.73;;;8.30;99.90;;;;;;473559;249;27968;-75
2023/12/13 07:00:23;;;;;;;1.50;1.30;;;8.30;99.90;;;;;;473572;249;28132;-75
2023/12/13 07:02:22;;;;;;;2.13;1.63;;;8.30;99.90;;;;;;473499;251;27840;-75
2023/12/13 07:04:24;;;;;;;1.70;1.60;;;8.30;99.90;;;;;;473596;249;28396;-74
2023/12/13 07:06:25;;;;;;;5.70;1.43;;;8.30;99.90;;;;;;473586;249;28229;-74
2023/12/13 07:08:26;;;;;;;4.30;1.70;;;8.40;99.90;;;;;;473557;249;28376;-75
2023/12/13 07:10:28;;;;;;;1.50;1.40;;;8.40;99.90;;;;;;473477;249;28451;-75
2023/12/13 07:12:29;;;;;;;3.30;1.70;;;8.30;99.90;;;;;;473586;249;28533;-74
2023/12/13 07:14:30;;;;;;;3.43;1.70;;;8.30;99.90;;;;;;473581;249;27853;-75
2023/12/13 07:16:31;;;;;;;3.90;1.70;;;8.30;99.90;;;;;;473559;249;28012;-74
2023/12/13 07:18:32;;;;;;;4.90;2.40;;;8.30;99.90;;;;;;473535;249;27876;-75
2023/12/13 07:20:34;;;;;;;4.67;1.60;;;8.30;99.90;;;;;;473682;246;27847;-75
2023/12/13 07:22:35;;;;;;;2.33;1.50;;;8.30;99.90;;;;;;473689;249;27974;-75
2023/12/13 07:24:36;;;;;;;4.40;2.07;;;8.20;99.90;;;;;;473683;249;27565;-76
2023/12/13 07:26:37;;;;;;;3.87;1.80;;;8.20;99.90;;;;;;473669;249;28218;-76
2023/12/13 07:28:39;;;;;;;3.87;2.00;;;8.20;99.90;;;;;;473676;249;27845;-75
2023/12/13 07:30:41;;;;;;;3.33;1.80;;;8.30;99.90;;;;;;473668;249;27987;-76
2023/12/13 07:32:41;;;;;;;3.97;1.80;;;8.20;99.90;;;;;;473651;249;28018;-77
2023/12/13 07:34:44;;;;;;;4.70;1.60;;;8.20;99.90;;;;;;473670;249;27854;-76
2023/12/13 07:36:48;;;;;;;2.00;1.40;;;8.20;99.90;;;;;;473606;249;27908;-76
2023/12/13 07:38:45;;;;;;;3.63;1.70;;;8.20;99.90;;;;;;473349;251;28021;-76
2023/12/13 07:40:47;;;;;;;3.80;1.90;;;8.20;99.90;;;;;;473568;249;27918;-75
2023/12/13 07:42:48;;;;;;;1.40;1.30;;;8.20;99.90;;;;;;473546;249;28085;-74
2023/12/13 07:44:49;;;;;;;2.37;1.70;;;8.20;99.90;;;;;;473575;249;28507;-75
2023/12/13 07:46:50;;;;;;;3.63;1.43;;;8.30;99.90;;;;;;476920;242;28311;-74
2023/12/13 07:48:52;;;;;;;4.00;1.73;;;8.30;99.90;;;;;;477229;249;29306;-75
2023/12/13 07:50:53;;;;;;;4.83;2.00;;;8.20;99.90;;;;;;477243;249;28414;-76
2023/12/13 07:52:54;;;;;;;3.00;1.70;;;8.20;99.90;;;;;;477254;249;28442;-75
2023/12/13 07:54:55;;;;;;;4.40;2.10;;;8.30;99.90;;;;;;477327;249;27988;-75
2023/12/13 07:56:56;;;;;;;3.10;1.53;;;8.20;99.90;;;;;;477313;249;28125;-75
2023/12/13 07:58:57;;;;;;;5.23;1.70;;;8.20;99.90;;;;;;477839;249;28017;-77
2023/12/13 08:00:59;;;;;;;6.00;1.97;;;8.20;99.90;;;;;;477754;249;27818;-79
2023/12/13 08:03:00;;;;;;;5.70;2.00;;;8.20;99.90;;;;;;477576;249;27614;-76
2023/12/13 08:05:01;;;;;;;1.83;1.53;;;8.20;99.90;;;;;;477277;249;27704;-75
2023/12/13 08:07:02;;;;;;;2.10;1.40;;;8.20;99.90;;;;;;477234;249;28011;-74
2023/12/13 08:09:04;;;;;;;1.67;1.50;;;8.20;99.90;;;;;;477261;249;28373;-74
2023/12/13 08:11:05;;;;;;;3.30;1.67;;;8.20;99.90;;;;;;477329;249;27614;-76
2023/12/13 08:13:06;;;;;;;2.87;1.57;;;8.20;99.90;;;;;;481679;242;27882;-74
2023/12/13 08:15:07;;;;;;;3.23;1.60;;;8.20;99.90;;;;;;482826;245;27911;-76
2023/12/13 08:17:10;;;;;;;5.23;1.70;;;8.20;99.90;;;;;;480829;245;27975;-74
2023/12/13 08:19:10;;;;;;;3.03;1.70;;;8.20;99.90;;;;;;477092;249;27647;-76
2023/12/13 08:21:11;;;;;;;2.27;1.70;;;8.20;99.90;;;;;;477304;249;27970;-76
2023/12/13 08:23:12;;;;;;;5.33;1.83;;;8.20;99.90;;;;;;477191;249;28664;-76
2023/12/13 08:25:14;;;;;;;2.20;2.00;;;8.20;99.90;;;;;;477100;249;28718;-74
2023/12/13 08:27:16;;;;;;;2.70;2.30;;;8.20;99.90;;;;;;477509;249;28037;-77
2023/12/13 08:29:16;;;;;;;5.63;2.90;;;8.30;99.90;;;;;;477271;249;28457;-75
2023/12/13 08:31:18;;;;;;;3.53;2.70;;;8.30;99.90;;;;;;477714;249;28453;-74
2023/12/13 08:33:19;;;;;;;3.17;2.47;;;8.50;99.90;;;;;;477243;249;28564;-74
2023/12/13 08:35:20;;;;;;;5.23;2.70;;;8.50;99.90;;;;;;477374;249;28396;-74
2023/12/13 08:37:23;;;;;;;5.13;3.20;;;8.50;99.90;;;;;;477303;249;27564;-75
2023/12/13 08:39:22;;;;;;;8.53;2.90;;;8.60;99.90;;;;;;477218;249;28038;-77
2023/12/13 08:41:24;;;;;;;6.87;3.13;;;8.70;99.90;;;;;;477544;249;27683;-76
2023/12/13 08:43:25;;;;;;;4.53;2.20;;;8.80;99.90;;;;;;477530;249;28025;-75
2023/12/13 08:45:26;;;;;;;4.77;2.17;;;8.80;99.90;;;;;;477428;247;27997;-77
2023/12/13 08:47:28;;;;;;;4.37;2.00;;;8.80;99.90;;;;;;476460;249;27893;-78
2023/12/13 08:49:29;;;;;;;4.37;2.00;;;8.90;99.90;;;;;;474458;249;28095;-74
2023/12/13 08:51:30;;;;;;;2.93;1.50;;;8.80;99.90;;;;;;474378;250;27634;-78
2023/12/13 08:53:31;;;;;;;6.20;2.17;;;8.80;99.90;;;;;;474420;249;27812;-76
2023/12/13 08:55:32;;;;;;;3.63;1.77;;;8.80;99.90;;;;;;474380;249;27802;-75
2023/12/13 08:57:34;;;;;;;3.97;2.00;;;8.80;99.90;;;;;;475463;249;27927;-77
2023/12/13 08:59:35;;;;;;;3.73;1.60;;;8.80;99.90;;;;;;477176;249;28160;-76
2023/12/13 09:01:36;;;;;;;3.37;1.77;;;8.80;99.90;;;;;;477399;249;28056;-80
2023/12/13 09:03:37;;;;;;;5.80;1.90;;;8.80;99.90;;;;;;474636;249;28085;-78
2023/12/13 09:05:39;;;;;;;2.57;1.80;;;8.70;99.90;;;;;;474445;250;28537;-77
2023/12/13 09:07:40;;;;;;;4.73;1.80;;;8.70;99.90;;;;;;475745;249;28428;-79
2023/12/13 09:09:42;;;;;;;1.83;1.30;;;8.70;99.90;;;;;;477464;249;28362;-76
2023/12/13 09:11:42;;;;;;;1.57;1.47;;;8.70;99.90;;;;;;477354;249;28430;-77
2023/12/13 09:13:44;;;;;;;2.30;1.53;;;8.70;99.90;;;;;;477436;249;28445;-76
2023/12/13 09:15:45;;;;;;;2.13;1.93;;;8.80;99.90;;;;;;477400;249;28003;-77
2023/12/13 09:17:46;;;;;;;5.60;1.90;;;8.80;99.90;;;;;;477288;249;27626;-80
2023/12/13 09:19:47;;;;;;;2.40;2.03;;;8.70;99.90;;;;;;477558;249;28205;-78
2023/12/13 09:21:49;;;;;;;2.77;1.53;;;8.60;99.90;;;;;;477666;249;28105;-79
2023/12/13 09:23:50;;;;;;;1.90;1.50;;;8.60;99.90;;;;;;474743;249;27783;-77
2023/12/13 09:25:51;;;;;;;7.27;2.03;;;8.50;99.90;;;;;;474868;249;27973;-75
2023/12/13 09:27:52;;;;;;;1.40;1.30;;;8.50;99.90;;;;;;475991;249;27964;-76
2023/12/13 09:29:54;;;;;;;3.90;1.90;;;8.50;99.90;;;;;;477732;249;28044;-77
2023/12/13 09:31:55;;;;;;;4.80;1.83;;;8.50;99.90;;;;;;477882;249;28273;-78
2023/12/13 09:33:57;;;;;;;2.20;1.80;;;8.60;99.90;;;;;;478200;249;27917;-77
2023/12/13 09:35:57;;;;;;;3.53;2.47;;;8.60;99.90;;;;;;478442;244;27655;-77
2023/12/13 09:37:59;;;;;;;2.80;2.07;;;8.60;99.90;;;;;;478372;249;27932;-80
2023/12/13 09:40:00;;;;;;;3.23;1.90;;;8.60;99.90;;;;;;477849;249;27995;-75
2023/12/13 09:42:02;;;;;;;2.00;1.60;;;8.60;99.90;;;;;;477579;249;27999;-76
2023/12/13 09:44:02;;;;;;;2.00;1.80;;;8.70;99.90;;;;;;477825;244;28414;-78
2023/12/13 09:46:05;;;;;;;4.50;2.20;;;8.70;99.90;;;;;;477776;249;28664;-78
2023/12/13 09:48:05;;;;;;;1.90;1.70;;;8.60;99.90;;;;;;478008;249;28477;-81
2023/12/13 09:50:06;;;;;;;3.30;1.90;;;8.60;99.90;;;;;;477780;249;28559;-79
2023/12/13 09:52:07;;;;;;;3.97;2.10;;;8.60;99.90;;;;;;477341;249;28204;-75
2023/12/13 09:54:09;;;;;;;2.10;1.70;;;8.80;99.90;;;;;;475161;247;28454;-78
2023/12/13 09:56:10;;;;;;;3.50;1.87;;;8.90;99.90;;;;;;475397;242;27775;-76
2023/12/13 09:58:11;;;;;;;2.97;2.20;;;9.00;99.90;;;;;;476017;246;27925;-78
2023/12/13 10:00:12;;;;;;;4.67;1.97;;;8.90;99.90;;;;;;474445;249;28040;-79
2023/12/13 10:02:14;;;;;;;3.13;1.80;;;9.00;99.90;;;;;;474975;249;27920;-78
2023/12/13 10:04:15;;;;;;;4.07;1.50;;;8.90;99.90;;;;;;479148;242;28032;-77
2023/12/13 10:06:16;;;;;;;1.70;1.60;;;9.00;99.90;;;;;;484044;244;27987;-76
2023/12/13 10:08:17;;;;;;;2.43;1.80;;;9.10;99.90;;;;;;484054;245;27834;-77
2023/12/13 10:10:19;;;;;;;1.77;1.67;;;9.10;99.90;;;;;;484296;245;28129;-78
2023/12/13 10:12:20;;;;;;;1.87;1.77;;;9.00;99.90;;;;;;484335;245;27911;-77
2023/12/13 10:14:21;;;;;;;3.63;2.23;;;9.00;99.90;;;;;;484152;245;27999;-80
2023/12/13 10:16:22;;;;;;;4.60;2.10;;;9.10;99.90;;;;;;484268;245;27666;-80
2023/12/13 10:18:24;;;;;;;4.43;2.03;;;9.10;99.90;;;;;;484320;244;28045;-79
2023/12/13 10:20:26;;;;;;;3.20;2.10;;;9.20;99.90;;;;;;484066;244;27985;-78
2023/12/13 10:22:26;;;;;;;2.73;1.90;;;9.30;99.90;;;;;;484025;245;28022;-79
2023/12/13 10:24:28;;;;;;;2.40;1.80;;;9.30;99.90;;;;;;484026;245;28444;-81
2023/12/13 10:26:29;;;;;;;5.90;2.40;;;9.30;99.90;;;;;;483623;246;28344;-81
2023/12/13 10:28:30;;;;;;;6.23;2.37;;;9.10;99.90;;;;;;483634;244;28306;-78
2023/12/13 10:30:32;;;;;;;3.10;1.73;;;9.10;99.90;;;;;;483427;244;28026;-82
2023/12/13 10:32:32;;;;;;;3.37;2.00;;;9.10;99.90;;;;;;483371;246;28389;-80
2023/12/13 10:34:34;;;;;;;2.03;1.80;;;9.10;99.90;;;;;;483465;245;29825;-79
2023/12/13 10:36:35;;;;;;;2.80;2.10;;;9.10;99.90;;;;;;483609;245;27648;-81
2023/12/13 10:38:36;;;;;;;3.77;2.07;;;9.00;99.90;;;;;;484152;244;27667;-77
2023/12/13 10:40:39;;;;;;;2.10;1.60;;;9.00;99.90;;;;;;484306;245;27570;-78